»·PEaware :: N19947 L52-L88

N19947 :: L52-L88

FLIGHT INFORMATION

Flight Status: Arrived
Operator: Privately registered:
United States
More flights under this callsign
Pilot: Adam A. (5112)
Aircraft: CESSNA 177 CARDINAL
(C177)
More flights by this aircraft type
Origin: L52 Oceano Co
United States
Destination: L88 New Cuyama
United States
More flights between these airports :: More routes between these airports
Route:
File this flight plan on PilotEdge
Remarks:
Altitude:
(Current/Filed)
4,000ft
Speed:
(Current/Filed)
115kts
Departed: 10-Oct-16 06:19 PM
Arrived: 10-Oct-16 06:54 PM
Distance/Time
Traveled:
47nm/0:35
Distance/Time
To Go:
Arrived

Flight Plot

Page will automatically refresh every two minutes.


Map Options




Map Legend


Flown Route
Filed Route
Departure Airport
Arrival Airport
Navaid (VOR, NDB)
Fix

Horizontal Profiles

Position Reports

Time Latitude Longitude Heading Altitude Ground
Speed
10-Oct-16 18:01 35.103364 -120.624438 32 17ft 0kts
10-Oct-16 18:02 35.103364 -120.624438 32 17ft 0kts
10-Oct-16 18:03 35.103364 -120.624438 32 17ft 0kts
10-Oct-16 18:04 35.103364 -120.624438 32 17ft 0kts
10-Oct-16 18:05 35.103364 -120.624438 32 17ft 0kts
10-Oct-16 18:06 35.103392 -120.624405 52 17ft 2kts
10-Oct-16 18:07 35.102958 -120.623750 204 17ft 6kts
10-Oct-16 18:08 35.102814 -120.623876 217 17ft 0kts
10-Oct-16 18:09 35.101693 -120.623591 125 17ft 6kts
10-Oct-16 18:10 35.100570 -120.621551 123 17ft 5kts
10-Oct-16 18:11 35.099571 -120.619814 146 17ft 5kts
10-Oct-16 18:12 35.099545 -120.619722 320 17ft 0kts
10-Oct-16 18:13 35.099497 -120.619635 79 17ft 0kts
10-Oct-16 18:14 35.099702 -120.619287 20 17ft 5kts
10-Oct-16 18:15 35.105943 -120.632577 289 348ft 71kts
10-Oct-16 18:16 35.090383 -120.628498 119 823ft 97kts
10-Oct-16 18:17 35.092963 -120.610213 335 491ft 66kts
10-Oct-16 18:18 35.102202 -120.623653 307 17ft 23kts
10-Oct-16 18:19 35.101050 -120.622443 124 17ft 7kts
10-Oct-16 18:20 35.100013 -120.620572 121 17ft 5kts
10-Oct-16 18:21 35.099830 -120.620242 123 17ft 0kts
10-Oct-16 18:22 35.099830 -120.620242 123 17ft 0kts
10-Oct-16 18:23 35.099734 -120.620057 125 17ft 5kts
10-Oct-16 18:24 35.099499 -120.619656 120 17ft 0kts
10-Oct-16 18:25 35.100603 -120.620780 304 17ft 47kts
10-Oct-16 18:26 35.099617 -120.637447 206 760ft 80kts
10-Oct-16 18:27 35.084272 -120.620112 119 1577ft 87kts
10-Oct-16 18:28 35.072447 -120.591113 111 2224ft 112kts
10-Oct-16 18:29 35.062815 -120.556689 104 2245ft 113kts
10-Oct-16 18:30 35.055181 -120.515801 95 2581ft 126kts
10-Oct-16 18:31 35.051307 -120.471258 94 2852ft 137kts
10-Oct-16 18:32 35.045421 -120.424668 100 3152ft 142kts
10-Oct-16 18:33 35.035291 -120.378368 103 3952ft 144kts
10-Oct-16 18:34 35.023462 -120.331477 98 4678ft 146kts
10-Oct-16 18:35 35.021133 -120.281755 87 5354ft 150kts
10-Oct-16 18:36 35.017509 -120.227991 99 5574ft 165kts
10-Oct-16 18:37 35.007192 -120.171553 102 5481ft 177kts
10-Oct-16 18:38 34.993998 -120.116974 104 5751ft 165kts
10-Oct-16 18:39 34.984924 -120.064179 100 6211ft 160kts
10-Oct-16 18:40 34.980248 -120.005943 95 6065ft 179kts
10-Oct-16 18:41 34.975388 -119.944828 94 5962ft 173kts
10-Oct-16 18:42 34.970159 -119.897908 103 5838ft 165kts
10-Oct-16 18:43 34.955960 -119.846175 110 5656ft 165kts
10-Oct-16 18:44 34.943721 -119.794455 109 5235ft 133kts
10-Oct-16 18:45 34.934148 -119.757842 111 4468ft 98kts
10-Oct-16 18:46 34.932459 -119.724084 79 3706ft 104kts
10-Oct-16 18:47 34.933454 -119.692877 110 3040ft 78kts
10-Oct-16 18:48 34.932406 -119.668380 13 2643ft 69kts
10-Oct-16 18:49 34.939686 -119.684958 294 2211ft 53kts
10-Oct-16 18:50 34.942489 -119.690944 292 2206ft 3kts
10-Oct-16 18:51 34.942483 -119.691086 160 2206ft 0kts
10-Oct-16 18:52 34.942418 -119.691066 170 2206ft 0kts
10-Oct-16 18:53 34.942418 -119.691066 170 2206ft 0kts
10-Oct-16 18:54 34.942418 -119.691066 170 2206ft 0kts
10-Oct-16 18:55 34.942418 -119.691066 170 2206ft 0kts
10-Oct-16 18:56 34.939336 -119.684114 117 2206ft 31kts
10-Oct-16 18:57 34.937420 -119.679948 315 2206ft 0kts
10-Oct-16 18:58 34.937420 -119.679948 315 2206ft 0kts
10-Oct-16 18:59 34.937420 -119.679948 315 2206ft 0kts
10-Oct-16 19:00 34.937420 -119.679948 315 2206ft 0kts
10-Oct-16 19:01 34.937420 -119.679948 315 2206ft 0kts
10-Oct-16 19:02 34.937420 -119.679948 315 2206ft 0kts
10-Oct-16 19:03 34.937420 -119.679948 315 2206ft 0kts
10-Oct-16 19:04 34.937420 -119.679948 315 2206ft 0kts

Navigation Log

Ident Type
Flight plan parsing failed, navigation log unavailable